Weather History for KPEA - October, 2012

Change the Weather History Date:

Tuesday, October 9, 2012

  Actual Average (KOXV) Record (KOXV)
Temperature  
Mean Temperature 52 °F -  
Max Temperature 62 °F 64 °F 92 °F (1949)
Min Temperature 41 °F 43 °F 26 °F (1964)
Degree Days  
Heating Degree Days 14    
Growing Degree Days 2 (Base 50)    
Moisture  
Dew Point 37 °F    
Average Humidity 61    
Maximum Humidity 90    
Minimum Humidity 42    
Precipitation  
Precipitation 0.01 in - - ()
Sea Level Pressure  
Sea Level Pressure 29.93 in    
Wind  
Wind Speed 11 mph (West)    
Max Wind Speed 20 mph    
Max Gust Speed 29 mph    
Visibility 10 miles    
Events Rain    
Averages and records for this station are not official NWS values.
T = Trace of Precipitation, MM = Missing Value Source: NWS Daily Summary

Daily Weather History Graph

Daily Weather History Graph

Search for Another Location

Airport or City:

Trip Planner

Search our weather history database for the weather conditions in past years. The results will help you decide how hot, cold, wet, or windy it might be!

Date:

Astronomy

Oct. 09, 2012 Rise Set
Actual Time 7:17 AM CDT 6:39 PM CDT
Civil Twilight 6:49 AM CDT 7:07 PM CDT
Nautical Twilight 6:17 AM CDT 7:39 PM CDT
Astronomical Twilight 5:45 AM CDT 8:11 PM CDT
Moon 12:50 AM CDT (10/9) 3:10 PM CDT (10/9)
Length of Visible Light 12h 17m
Length of Day
11h 21m
Last Quarter, 36% of the Moon is Illuminated
Oct 9
Last Quarter
Oct 15
New
Oct 21
First Quarter
Oct 29
Full
Nov 6
Last Quarter

Hourly Weather History & Observations

Time (CDT) Temp. Windchill Dew Point Humidity Pressure Visibility Wind Dir Wind Speed Gust Speed Precip Events Conditions
12:15 AM 53.1 °F - 34.2 °F 49% 29.88 in 10.0 mi South 13.8 mph - N/A   Clear
12:35 AM 52.7 °F - 34.2 °F 49% 29.88 in 10.0 mi SSW 11.5 mph - N/A   Clear
12:55 AM 52.7 °F - 34.2 °F 49% 29.88 in 10.0 mi SSW 12.7 mph 17.3 mph N/A   Clear
1:15 AM 52.2 °F - 34.2 °F 50% 29.87 in 10.0 mi SSW 10.4 mph 17.3 mph N/A   Clear
1:55 AM 51.4 °F - 34.3 °F 52% 29.88 in 10.0 mi SSW 9.2 mph - N/A   Clear
2:15 AM 51.6 °F - 34.5 °F 52% 29.89 in 10.0 mi SSW 6.9 mph - N/A   Clear
2:55 AM 52.3 °F - 34.7 °F 51% 29.88 in 10.0 mi SSW 10.4 mph - N/A   Clear
3:15 AM 52.7 °F - 34.9 °F 51% 29.87 in 10.0 mi SSW 9.2 mph - N/A   Clear
3:35 AM 52.7 °F - 35.2 °F 52% 29.87 in 10.0 mi SSW 9.2 mph - N/A   Clear
3:55 AM 52.7 °F - 35.2 °F 52% 29.87 in 10.0 mi SW 8.1 mph - N/A   Clear
4:15 AM 52.9 °F - 35.6 °F 52% 29.86 in 10.0 mi SSW 8.1 mph - N/A   Clear
4:35 AM 52.7 °F - 35.6 °F 52% 29.86 in 10.0 mi SW 10.4 mph - N/A   Clear
4:55 AM 52.3 °F - 35.6 °F 53% 29.86 in 10.0 mi SSW 10.4 mph - N/A   Clear
5:15 AM 52.2 °F - 35.8 °F 54% 29.85 in 10.0 mi SSW 10.4 mph 17.3 mph N/A   Clear
5:35 AM 51.8 °F - 36.0 °F 55% 29.85 in 10.0 mi SSW 11.5 mph 16.1 mph N/A   Clear
5:55 AM 51.8 °F - 36.0 °F 55% 29.85 in 10.0 mi SSW 10.4 mph 18.4 mph N/A   Clear
6:15 AM 52.0 °F - 36.1 °F 55% 29.85 in 10.0 mi SSW 11.5 mph - N/A   Clear
6:55 AM 52.0 °F - 36.1 °F 55% 29.85 in 10.0 mi SSW 8.1 mph 16.1 mph N/A   Clear
7:15 AM 52.0 °F - 36.3 °F 55% 29.85 in 10.0 mi SW 6.9 mph - N/A   Clear
7:55 AM 52.0 °F - 36.5 °F 56% 29.86 in 10.0 mi SW 8.1 mph - N/A   Clear
8:15 AM 52.3 °F - 36.7 °F 55% 29.86 in 10.0 mi SW 9.2 mph - N/A   Clear
8:35 AM 53.1 °F - 37.0 °F 55% 29.86 in 10.0 mi SW 6.9 mph - N/A   Clear
8:55 AM 53.8 °F - 37.2 °F 54% 29.87 in 10.0 mi SW 8.1 mph - N/A   Clear
9:15 AM 54.9 °F - 37.4 °F 52% 29.87 in 10.0 mi WSW 9.2 mph 16.1 mph N/A   Clear
9:35 AM 56.1 °F - 37.4 °F 49% 29.87 in 10.0 mi WSW 10.4 mph - N/A   Clear
9:55 AM 56.8 °F - 37.4 °F 48% 29.87 in 10.0 mi West 12.7 mph 17.3 mph N/A   Clear
10:15 AM 57.4 °F - 37.4 °F 47% 29.87 in 10.0 mi West 10.4 mph - N/A   Clear
10:35 AM 57.7 °F - 37.8 °F 47% 29.88 in 10.0 mi WSW 10.4 mph 16.1 mph N/A   Clear
10:55 AM 59.0 °F - 37.4 °F 45% 29.87 in 10.0 mi West 11.5 mph 16.1 mph N/A   Clear
11:15 AM 59.2 °F - 37.4 °F 44% 29.87 in 10.0 mi West 6.9 mph - N/A   Clear
11:35 AM 59.9 °F - 37.4 °F 43% 29.88 in 10.0 mi WSW 9.2 mph - N/A   Clear
11:55 AM 60.4 °F - 37.4 °F 42% 29.87 in 10.0 mi West 10.4 mph - N/A   Clear
12:15 PM 61.3 °F - 39.2 °F 44% 29.88 in 10.0 mi West 10.4 mph - N/A   Clear
12:35 PM 62.4 °F - 39.7 °F 43% 29.88 in 10.0 mi NW 13.8 mph - N/A   Scattered Clouds
12:55 PM 61.5 °F - 39.0 °F 43% 29.87 in 10.0 mi NW 12.7 mph - N/A   Mostly Cloudy
1:15 PM 61.3 °F - 39.4 °F 44% 29.88 in 10.0 mi NNW 12.7 mph 20.7 mph N/A   Mostly Cloudy
1:35 PM 59.4 °F - 41.4 °F 51% 29.89 in 10.0 mi NNW 18.4 mph - N/A   Overcast
1:55 PM 56.8 °F - 41.2 °F 56% 29.90 in 10.0 mi NW 19.6 mph 24.2 mph N/A   Overcast
2:15 PM 55.6 °F - 40.3 °F 56% 29.91 in 10.0 mi NNW 18.4 mph - N/A   Overcast
2:35 PM 54.7 °F - 40.1 °F 58% 29.92 in 10.0 mi NNW 13.8 mph 19.6 mph N/A   Overcast
2:55 PM 54.1 °F - 39.7 °F 58% 29.93 in 10.0 mi NW 16.1 mph - N/A   Overcast
3:15 PM 53.1 °F - 40.1 °F 61% 29.94 in 10.0 mi NNW 15.0 mph 21.9 mph N/A   Overcast
3:35 PM 52.2 °F - 39.4 °F 62% 29.94 in 10.0 mi NW 17.3 mph - N/A   Overcast
3:55 PM 49.3 °F - 40.6 °F 72% 29.96 in 10.0 mi NW 18.4 mph 28.8 mph N/A Rain Light Rain
4:15 PM 46.0 °F 39.9 °F 40.6 °F 81% 29.98 in 7.0 mi NW 13.8 mph 23.0 mph N/A Rain Rain
4:35 PM 45.5 °F 41.3 °F 41.9 °F 87% 29.98 in 10.0 mi WNW 8.1 mph - N/A Rain Rain
4:55 PM 45.5 °F 42.5 °F 42.8 °F 90% 29.97 in 10.0 mi West 5.8 mph - 0.01 in Rain Light Rain
5:15 PM 45.5 °F 44.2 °F 42.4 °F 89% 29.96 in 10.0 mi WNW 3.5 mph - N/A   Light Drizzle
5:35 PM 45.7 °F 42.7 °F 42.6 °F 89% 29.96 in 10.0 mi West 5.8 mph - N/A   Clear
5:55 PM 45.9 °F 42.3 °F 41.9 °F 86% 29.97 in 10.0 mi WSW 6.9 mph - N/A   Clear
6:15 PM 46.0 °F 42.5 °F 41.2 °F 83% 29.96 in 10.0 mi West 6.9 mph - N/A   Clear
6:35 PM 46.0 °F 42.5 °F 41.0 °F 83% 29.96 in 10.0 mi West 6.9 mph - N/A   Clear
6:55 PM 46.0 °F 41.9 °F 39.6 °F 78% 29.98 in 10.0 mi West 8.1 mph - N/A   Clear
7:15 PM 46.0 °F 42.5 °F 40.3 °F 80% 29.98 in 10.0 mi West 6.9 mph - N/A   Scattered Clouds
7:35 PM 45.5 °F 41.8 °F 40.5 °F 83% 29.99 in 10.0 mi West 6.9 mph - N/A   Scattered Clouds
7:55 PM 45.5 °F 42.5 °F 40.6 °F 83% 30.00 in 10.0 mi West 5.8 mph - N/A   Clear
8:15 PM 45.0 °F 40.6 °F 40.1 °F 83% 30.00 in 10.0 mi West 8.1 mph - N/A   Clear
8:35 PM 44.8 °F 41.0 °F 39.0 °F 80% 30.01 in 10.0 mi West 6.9 mph - N/A   Clear
8:55 PM 45.0 °F 39.7 °F 37.6 °F 75% 30.02 in 10.0 mi WNW 10.4 mph - N/A   Clear
9:15 PM 44.4 °F 39.5 °F 35.6 °F 71% 30.03 in 10.0 mi WNW 9.2 mph - N/A   Clear
9:35 PM 43.0 °F 37.7 °F 34.7 °F 73% 30.04 in 10.0 mi WNW 9.2 mph - N/A   Clear
9:55 PM 42.1 °F 37.1 °F 33.3 °F 71% 30.05 in 10.0 mi WNW 8.1 mph - N/A   Clear
10:15 PM 41.5 °F 35.9 °F 32.0 °F 69% 30.06 in 10.0 mi WNW 9.2 mph - N/A   Clear
10:35 PM 41.0 °F 35.2 °F 32.0 °F 70% 30.07 in 10.0 mi NW 9.2 mph - N/A   Clear
10:55 PM 41.2 °F 35.5 °F 32.0 °F 70% 30.08 in 10.0 mi NW 9.2 mph - N/A   Mostly Cloudy
11:15 PM 41.9 °F 36.3 °F 32.2 °F 68% 30.08 in 10.0 mi NW 9.2 mph - N/A   Overcast
11:35 PM 42.1 °F 37.1 °F 32.5 °F 69% 30.09 in 10.0 mi WNW 8.1 mph - N/A   Overcast
11:55 PM 41.2 °F 36.6 °F 32.2 °F 70% 30.09 in 10.0 mi NW 6.9 mph - N/A   Overcast